Time;durP1;ratioP1;P1;durP2;ratioP2;P2;SDS_P1;SDS_P2;PMS_P1;PMS_P2;Temp;Humidity;BMP_temperature;BMP_pressure;BME280_temperature;BME280_humidity;BME280_pressure;Samples;Min_cycle;Max_cycle;Signal;HPM_P1;HPM_P2
2023/10/26 00:02:07;;;;;;;1.17;1.05;;;;;;;14.69;71.13;99582.81;5009988;28;20033;-62
2023/10/26 00:04:32;;;;;;;1.50;1.40;;;;;;;14.69;71.38;99588.19;5006999;28;20040;-62
2023/10/26 00:06:58;;;;;;;2.50;1.20;;;;;;;14.69;71.24;99595.38;5008177;28;20546;-62
2023/10/26 00:09:24;;;;;;;1.23;1.13;;;;;;;14.67;71.30;99595.53;5010011;28;20062;-62
2023/10/26 00:11:50;;;;;;;1.13;1.02;;;;;;;14.68;71.51;99605.28;5006896;28;20465;-62
2023/10/26 00:14:15;;;;;;;1.38;1.17;;;;;;;14.68;71.61;99610.63;5013495;28;20060;-62
2023/10/26 00:16:40;;;;;;;1.70;1.20;;;;;;;14.68;71.46;99610.63;5007373;28;20092;-62
2023/10/26 00:19:06;;;;;;;1.17;1.08;;;;;;;14.67;71.25;99608.94;5007050;28;20404;-62
2023/10/26 00:21:31;;;;;;;1.20;1.10;;;;;;;14.68;71.25;99612.44;5006045;28;20062;-62
2023/10/26 00:23:56;;;;;;;1.30;1.20;;;;;;;14.68;71.23;99629.38;5005836;28;20042;-63
2023/10/26 00:26:22;;;;;;;2.03;1.10;;;;;;;14.68;71.42;99626.69;5006075;28;20037;-62
2023/10/26 00:28:47;;;;;;;1.13;1.10;;;;;;;14.69;71.11;99627.53;5008039;28;20026;-62
2023/10/26 00:31:13;;;;;;;1.40;1.27;;;;;;;14.67;71.29;99625.00;5006334;28;20492;-62
2023/10/26 00:33:39;;;;;;;1.17;1.00;;;;;;;14.68;71.45;99617.81;5005428;28;20046;-62
2023/10/26 00:36:04;;;;;;;2.58;1.30;;;;;;;14.68;71.52;99625.84;5006055;28;20384;-62
2023/10/26 00:38:30;;;;;;;1.00;1.00;;;;;;;14.66;71.41;99629.53;5009049;28;20466;-62
2023/10/26 00:40:56;;;;;;;1.88;1.02;;;;;;;14.67;71.37;99627.69;5005471;28;20129;-63
2023/10/26 00:43:22;;;;;;;1.77;1.30;;;;;;;14.67;71.27;99643.75;5005561;28;20042;-62
2023/10/26 00:45:51;;;;;;;1.42;1.30;;;;;;;14.68;71.72;99641.91;5005780;28;20030;-63
2023/10/26 00:48:17;;;;;;;1.48;1.17;;;;;;;14.68;71.33;99636.56;5005457;28;20037;-62
2023/10/26 00:50:42;;;;;;;1.33;0.75;;;;;;;14.66;71.09;99629.53;5006096;28;20472;-62
2023/10/26 00:53:10;;;;;;;1.08;1.00;;;;;;;14.68;71.42;99641.91;5006150;28;20040;-62
2023/10/26 00:55:36;;;;;;;1.45;0.98;;;;;;;14.66;71.21;99645.59;5004864;28;20030;-62
2023/10/26 00:58:02;;;;;;;1.08;0.98;;;;;;;14.66;71.16;99640.25;5005126;28;20025;-62
2023/10/26 01:00:27;;;;;;;1.33;1.10;;;;;;;14.67;71.29;99649.13;5006119;28;20032;-63
2023/10/26 01:02:54;;;;;;;1.00;1.00;;;;;;;14.66;71.03;99639.41;5007296;28;20140;-62
2023/10/26 01:05:19;;;;;;;1.00;1.00;;;;;;;14.66;71.53;99647.44;5005789;28;20396;-62
2023/10/26 01:07:45;;;;;;;1.60;1.05;;;;;;;14.66;71.46;99645.59;5005102;28;20044;-62
2023/10/26 01:10:11;;;;;;;1.20;1.10;;;;;;;14.66;71.52;99650.13;5006094;28;20064;-62
2023/10/26 01:12:36;;;;;;;1.10;1.00;;;;;;;14.66;71.33;99644.78;5005022;28;20026;-62
2023/10/26 01:15:02;;;;;;;1.23;1.10;;;;;;;14.65;71.34;99648.44;5005251;28;20034;-62
2023/10/26 01:17:28;;;;;;;1.08;1.02;;;;;;;14.65;71.69;99643.91;5005022;28;20034;-62
2023/10/26 01:19:53;;;;;;;1.42;1.33;;;;;;;14.66;71.16;99653.63;5005453;28;20084;-63
2023/10/26 01:22:18;;;;;;;1.35;1.10;;;;;;;14.66;71.21;99660.84;5004099;28;20038;-62
2023/10/26 01:24:44;;;;;;;1.25;1.02;;;;;;;14.66;71.27;99650.13;5008575;28;20118;-62
2023/10/26 01:27:09;;;;;;;2.95;1.25;;;;;;;14.66;71.46;99659.00;5005951;28;20038;-62
2023/10/26 01:29:35;;;;;;;1.50;1.40;;;;;;;14.67;71.48;99657.16;5008179;28;20025;-63
2023/10/26 01:32:00;;;;;;;1.27;1.17;;;;;;;14.65;71.28;99653.78;5004542;28;20492;-63
2023/10/26 01:34:26;;;;;;;1.05;1.00;;;;;;;14.65;71.12;99659.97;5006575;28;20042;-62
2023/10/26 01:36:52;;;;;;;1.10;1.10;;;;;;;14.65;71.41;99662.66;5002531;28;20085;-63
2023/10/26 01:39:18;;;;;;;1.10;0.93;;;;;;;14.65;71.52;99654.63;5004521;28;20401;-62
2023/10/26 01:41:44;;;;;;;1.10;1.10;;;;;;;14.65;71.58;99659.16;5003062;28;20093;-62
2023/10/26 01:44:09;;;;;;;1.20;1.10;;;;;;;14.64;71.27;99649.41;5007061;28;20042;-62
2023/10/26 01:46:35;;;;;;;1.20;1.10;;;;;;;14.64;71.07;99644.06;5005444;28;20023;-63
2023/10/26 01:49:01;;;;;;;1.30;1.20;;;;;;;14.65;71.31;99651.94;5005366;28;20030;-62
2023/10/26 01:51:26;;;;;;;1.73;1.10;;;;;;;14.66;71.34;99655.50;5004022;28;20038;-62
2023/10/26 01:53:52;;;;;;;1.30;1.20;;;;;;;14.65;71.41;99648.44;5004285;28;20034;-62
2023/10/26 01:56:17;;;;;;;1.30;1.20;;;;;;;14.64;71.46;99650.28;5004376;28;20509;-62
2023/10/26 01:58:43;;;;;;;1.42;1.20;;;;;;;14.65;71.66;99648.44;5006561;28;20030;-63
2023/10/26 02:01:09;;;;;;;1.98;0.95;;;;;;;14.64;71.23;99657.44;4998782;28;20432;-63
2023/10/26 02:03:34;;;;;;;1.10;1.10;;;;;;;14.63;71.54;99653.94;5008465;28;20034;-63
2023/10/26 02:06:02;;;;;;;2.05;1.05;;;;;;;14.64;71.58;99660.13;5002766;28;20116;-62
2023/10/26 02:08:28;;;;;;;1.20;1.10;;;;;;;14.65;71.52;99654.63;5003096;28;20030;-62
2023/10/26 02:10:53;;;;;;;1.50;1.30;;;;;;;14.64;71.07;99650.28;5003219;28;20041;-62
2023/10/26 02:13:18;;;;;;;1.30;1.20;;;;;;;14.64;71.40;99642.25;5003193;28;20034;-62
2023/10/26 02:15:44;;;;;;;1.52;1.20;;;;;;;14.63;71.36;99639.72;5003738;28;20038;-63
2023/10/26 02:18:09;;;;;;;0.98;0.98;;;;;;;14.63;71.16;99639.72;5004544;28;20455;-63
2023/10/26 02:20:35;;;;;;;0.90;0.90;;;;;;;14.64;71.09;99649.41;5002760;28;20523;-62
2023/10/26 02:23:00;;;;;;;1.95;1.42;;;;;;;14.62;71.49;99649.59;5003638;28;20049;-63
2023/10/26 02:25:26;;;;;;;0.85;0.85;;;;;;;14.63;71.51;99637.03;5002535;28;20033;-63
2023/10/26 02:27:51;;;;;;;1.02;1.00;;;;;;;14.62;71.44;99644.22;5004725;28;20033;-63
2023/10/26 02:30:17;;;;;;;1.63;1.13;;;;;;;14.63;71.15;99647.75;5003404;28;20033;-63
2023/10/26 02:32:42;;;;;;;1.67;1.48;;;;;;;14.62;71.50;99646.03;5002715;28;20576;-63
2023/10/26 02:35:08;;;;;;;1.25;1.15;;;;;;;14.61;71.50;99642.53;5003160;28;20037;-63
2023/10/26 02:37:38;;;;;;;1.48;1.30;;;;;;;14.63;71.09;99645.91;5003421;28;20034;-62
2023/10/26 02:40:05;;;;;;;1.05;0.98;;;;;;;14.62;71.23;99640.69;5006298;28;20097;-62
2023/10/26 02:42:31;;;;;;;1.40;1.30;;;;;;;14.62;71.30;99635.34;5006391;28;20046;-63
2023/10/26 02:44:57;;;;;;;1.50;1.30;;;;;;;14.62;71.15;99640.69;5007135;28;20392;-63
2023/10/26 02:47:23;;;;;;;1.65;1.23;;;;;;;14.62;71.44;99643.38;5003367;28;20034;-63
2023/10/26 02:49:49;;;;;;;1.25;1.08;;;;;;;14.61;71.20;99634.50;5003703;28;20033;-62
2023/10/26 02:52:14;;;;;;;1.50;1.30;;;;;;;14.61;71.24;99639.84;5000206;28;20038;-62
2023/10/26 02:54:40;;;;;;;1.50;1.17;;;;;;;14.62;71.22;99638.00;5002927;28;20388;-62
2023/10/26 02:57:05;;;;;;;1.23;1.13;;;;;;;14.62;71.00;99646.91;5003082;28;20046;-63
2023/10/26 02:59:31;;;;;;;1.83;1.20;;;;;;;14.62;71.18;99646.91;5002140;28;20022;-63
2023/10/26 03:01:56;;;;;;;1.33;1.23;;;;;;;14.62;71.48;99656.75;5001327;28;20025;-63
2023/10/26 03:04:22;;;;;;;1.73;1.17;;;;;;;14.61;71.11;99655.09;5002046;28;20105;-63
2023/10/26 03:06:47;;;;;;;1.08;1.02;;;;;;;14.62;71.29;99640.69;5006210;28;20034;-60
2023/10/26 03:09:13;;;;;;;1.55;1.45;;;;;;;14.61;71.32;99642.53;5002333;28;20058;-60
2023/10/26 03:11:39;;;;;;;1.55;1.45;;;;;;;14.59;71.13;99639.16;5009372;28;20037;-60
2023/10/26 03:14:05;;;;;;;1.48;1.27;;;;;;;14.60;71.37;99635.50;5003283;28;20033;-61
2023/10/26 03:16:31;;;;;;;1.55;1.30;;;;;;;14.61;71.31;99637.19;5009281;28;20089;-61
2023/10/26 03:18:56;;;;;;;1.73;1.38;;;;;;;14.60;71.25;99643.56;5007810;28;20357;-61
2023/10/26 03:21:22;;;;;;;1.20;1.10;;;;;;;14.60;71.52;99645.38;5000964;28;20088;-60
2023/10/26 03:23:53;;;;;;;1.10;1.00;;;;;;;14.60;71.24;99640.00;5008013;28;20492;-61
2023/10/26 03:26:19;;;;;;;1.35;1.25;;;;;;;14.59;71.58;99643.69;5006710;28;20042;-61
2023/10/26 03:28:45;;;;;;;2.00;1.35;;;;;;;14.59;71.23;99638.34;5005968;28;20517;-61
2023/10/26 03:31:11;;;;;;;0.90;0.90;;;;;;;14.58;71.56;99640.19;5012420;28;20060;-60
2023/10/26 03:33:37;;;;;;;1.35;1.25;;;;;;;14.58;71.39;99642.00;5010255;28;20034;-61
2023/10/26 03:36:03;;;;;;;1.30;1.20;;;;;;;14.59;71.47;99641.00;5004281;28;20416;-60
2023/10/26 03:38:28;;;;;;;1.30;1.20;;;;;;;14.59;71.08;99639.16;5006708;28;20053;-61
2023/10/26 03:40:53;;;;;;;1.17;1.10;;;;;;;14.59;71.16;99643.69;5005292;28;20503;-61
2023/10/26 03:43:19;;;;;;;1.30;1.20;;;;;;;14.58;71.48;99642.88;5006536;28;20487;-61
2023/10/26 03:45:45;;;;;;;1.15;1.10;;;;;;;14.58;71.52;99636.63;5008895;28;20069;-61
2023/10/26 03:48:11;;;;;;;2.47;1.20;;;;;;;14.58;71.35;99625.94;5006432;28;20040;-60
2023/10/26 03:50:36;;;;;;;1.52;1.17;;;;;;;14.57;71.34;99625.09;5006514;28;20029;-60
2023/10/26 03:53:01;;;;;;;1.45;1.30;;;;;;;14.58;71.27;99625.94;5005141;28;20037;-60
2023/10/26 03:55:27;;;;;;;1.27;1.17;;;;;;;14.57;70.99;99634.97;5005432;28;20038;-60
2023/10/26 03:57:52;;;;;;;1.30;1.20;;;;;;;14.58;71.26;99623.25;5008095;28;20032;-60
2023/10/26 04:00:17;;;;;;;1.27;1.17;;;;;;;14.57;71.34;99617.06;5021194;28;20073;-61
2023/10/26 04:02:43;;;;;;;1.95;1.30;;;;;;;14.58;71.29;99609.84;5009018;28;20120;-60
2023/10/26 04:05:10;;;;;;;2.50;1.30;;;;;;;14.56;71.21;99609.13;5007040;28;20416;-61
2023/10/26 04:07:35;;;;;;;1.42;1.20;;;;;;;14.56;71.57;99606.47;5006183;28;20056;-60
2023/10/26 04:10:05;;;;;;;1.05;1.05;;;;;;;14.57;71.39;99613.53;5002883;28;20113;-61
2023/10/26 04:12:30;;;;;;;1.10;1.00;;;;;;;14.56;71.52;99617.16;5007506;28;20634;-60
2023/10/26 04:14:55;;;;;;;1.27;1.17;;;;;;;14.56;71.21;99611.81;5009594;28;20057;-61
2023/10/26 04:17:21;;;;;;;1.05;1.05;;;;;;;14.57;71.29;99610.88;5002637;28;20034;-61
2023/10/26 04:19:46;;;;;;;1.50;1.40;;;;;;;14.55;71.34;99604.78;5003936;28;20030;-60
2023/10/26 04:22:12;;;;;;;0.93;0.90;;;;;;;14.56;71.20;99603.78;5005702;28;20113;-60
2023/10/26 04:24:37;;;;;;;1.38;1.27;;;;;;;14.55;71.04;99610.16;5003912;28;20034;-61
2023/10/26 04:27:03;;;;;;;1.40;1.30;;;;;;;14.55;71.35;99610.16;5005644;28;20026;-60
2023/10/26 04:29:29;;;;;;;1.20;1.10;;;;;;;14.54;71.46;99619.16;5004477;28;20030;-60
2023/10/26 04:31:54;;;;;;;1.00;1.00;;;;;;;14.55;71.28;99615.50;5005458;28;20033;-61
2023/10/26 04:34:20;;;;;;;1.42;1.33;;;;;;;14.54;71.37;99606.59;5005781;28;20040;-60
2023/10/26 04:36:46;;;;;;;1.27;1.17;;;;;;;14.54;71.24;99603.94;5005306;28;20550;-60
2023/10/26 04:39:12;;;;;;;1.27;1.15;;;;;;;14.54;71.73;99603.94;5009931;28;20041;-61
2023/10/26 04:41:38;;;;;;;1.27;1.17;;;;;;;14.54;71.45;99613.81;5004952;28;20416;-60
2023/10/26 04:44:05;;;;;;;1.30;1.20;;;;;;;14.53;71.29;99604.94;5004813;28;20030;-60
2023/10/26 04:46:30;;;;;;;1.50;1.40;;;;;;;14.53;71.17;99612.97;5005427;28;20046;-60
2023/10/26 04:48:56;;;;;;;1.05;1.05;;;;;;;14.53;71.13;99607.63;5006218;28;20026;-61
2023/10/26 04:51:21;;;;;;;1.38;1.27;;;;;;;14.53;70.99;99606.78;5004367;28;20361;-60
2023/10/26 04:53:47;;;;;;;1.10;1.10;;;;;;;14.53;71.03;99612.16;5004985;28;20548;-61
2023/10/26 04:56:12;;;;;;;1.40;1.30;;;;;;;14.52;71.32;99597.06;5008432;28;20480;-60
2023/10/26 04:58:38;;;;;;;1.90;1.20;;;;;;;14.52;71.34;99602.41;5006308;28;20542;-61
2023/10/26 05:01:04;;;;;;;1.30;1.20;;;;;;;14.52;71.45;99605.09;5006467;28;20420;-60
2023/10/26 05:03:30;;;;;;;1.15;1.10;;;;;;;14.52;71.16;99605.09;5003710;28;20084;-62
2023/10/26 05:05:56;;;;;;;1.15;1.13;;;;;;;14.50;71.14;99605.25;5001341;28;20046;-62
2023/10/26 05:08:21;;;;;;;1.75;1.10;;;;;;;14.51;71.26;99604.25;5006421;28;20033;-62
2023/10/26 05:10:47;;;;;;;2.03;1.20;;;;;;;14.52;71.18;99613.97;5004100;28;20042;-62
2023/10/26 05:13:12;;;;;;;0.95;0.95;;;;;;;14.51;71.29;99603.38;5004374;28;20033;-62
2023/10/26 05:15:38;;;;;;;1.15;1.05;;;;;;;14.50;71.28;99604.41;5006798;28;20022;-62
2023/10/26 05:18:03;;;;;;;0.90;0.90;;;;;;;14.51;71.39;99603.38;5004565;28;20396;-62
2023/10/26 05:20:30;;;;;;;1.27;1.17;;;;;;;14.51;71.18;99592.69;5004467;28;20393;-62
2023/10/26 05:22:56;;;;;;;1.10;1.08;;;;;;;14.49;71.02;99598.22;5004721;28;20073;-62
2023/10/26 05:25:21;;;;;;;1.13;1.02;;;;;;;14.50;71.11;99594.53;5004386;28;20065;-62
2023/10/26 05:27:47;;;;;;;0.82;0.82;;;;;;;14.50;71.14;99596.38;5004725;28;20091;-62
2023/10/26 05:30:12;;;;;;;1.30;1.20;;;;;;;14.49;71.33;99600.88;5010248;28;20053;-62
2023/10/26 05:32:39;;;;;;;1.30;1.20;;;;;;;14.49;71.29;99603.56;5007405;28;20097;-62
2023/10/26 05:35:05;;;;;;;1.42;1.10;;;;;;;14.47;71.22;99601.03;5004132;28;20034;-62
2023/10/26 05:37:31;;;;;;;1.38;1.13;;;;;;;14.48;71.45;99600.03;5005997;28;20022;-62
2023/10/26 05:39:56;;;;;;;1.38;1.15;;;;;;;14.48;71.35;99600.03;5011404;28;20413;-61
2023/10/26 05:42:22;;;;;;;1.40;1.13;;;;;;;14.48;71.13;99602.72;5011334;28;20495;-62
2023/10/26 05:44:47;;;;;;;1.17;1.10;;;;;;;14.48;71.14;99594.66;5011670;28;20061;-62
2023/10/26 05:47:12;;;;;;;1.15;1.08;;;;;;;14.48;71.31;99593.84;5006724;28;20496;-62
2023/10/26 05:49:38;;;;;;;1.10;1.00;;;;;;;14.47;71.09;99598.38;5006587;28;20030;-61
2023/10/26 05:52:03;;;;;;;1.45;1.00;;;;;;;14.47;71.23;99594.84;5006555;28;20083;-61
2023/10/26 05:54:29;;;;;;;1.45;1.30;;;;;;;14.47;71.07;99606.41;5004194;28;20034;-61
2023/10/26 05:56:55;;;;;;;1.45;1.35;;;;;;;14.47;71.16;99598.38;5007156;28;20115;-61
2023/10/26 05:59:20;;;;;;;1.63;1.30;;;;;;;14.47;71.45;99593.00;5010861;28;20030;-61
2023/10/26 06:01:46;;;;;;;1.70;1.33;;;;;;;14.47;71.24;99579.63;5010541;28;20030;-62
2023/10/26 06:04:11;;;;;;;3.28;2.05;;;;;;;14.46;71.40;99580.59;5010890;28;20490;-61
2023/10/26 06:06:37;;;;;;;4.07;2.72;;;;;;;14.47;71.37;99578.78;5010545;28;20033;-61
2023/10/26 06:09:03;;;;;;;5.20;2.17;;;;;;;14.47;71.35;99571.59;5004512;28;20038;-56
2023/10/26 06:11:28;;;;;;;2.95;2.10;;;;;;;14.45;71.03;99570.91;5006364;28;20038;-55
2023/10/26 06:13:54;;;;;;;4.85;2.03;;;;;;;14.45;71.03;99573.56;5003581;28;20479;-55
2023/10/26 06:16:20;;;;;;;2.42;1.70;;;;;;;14.46;70.97;99577.09;5006328;28;20076;-55
2023/10/26 06:18:45;;;;;;;5.68;2.17;;;;;;;14.44;70.93;99577.22;5004151;28;20033;-55
2023/10/26 06:21:13;;;;;;;3.60;1.85;;;;;;;14.43;71.05;99580.91;5002226;28;20115;-55
2023/10/26 06:23:38;;;;;;;3.08;2.00;;;;;;;14.44;70.84;99582.59;5006327;28;20033;-55
2023/10/26 06:26:04;;;;;;;3.63;2.13;;;;;;;14.43;70.69;99586.28;5003621;28;20041;-55
2023/10/26 06:28:30;;;;;;;2.85;1.90;;;;;;;14.43;70.80;99586.28;5004347;28;20044;-55
2023/10/26 06:30:56;;;;;;;3.53;1.98;;;;;;;14.41;70.87;99585.59;5004168;28;20116;-55
2023/10/26 06:33:22;;;;;;;3.67;1.88;;;;;;;14.41;70.53;99582.91;5003526;28;20091;-55
2023/10/26 06:35:49;;;;;;;4.75;1.95;;;;;;;14.42;70.72;99581.06;5003796;28;20042;-55
2023/10/26 06:38:14;;;;;;;3.10;1.80;;;;;;;14.41;70.36;99582.91;5003841;28;20038;-55
2023/10/26 06:40:40;;;;;;;2.55;1.80;;;;;;;14.41;70.54;99582.06;5005615;28;20080;-55
2023/10/26 06:43:05;;;;;;;4.10;2.42;;;;;;;14.41;70.47;99595.44;5002880;28;20028;-55
2023/10/26 06:45:30;;;;;;;1.95;1.77;;;;;;;14.40;70.53;99591.94;5003799;28;20041;-55
2023/10/26 06:47:56;;;;;;;3.35;1.60;;;;;;;14.40;70.16;99586.56;5004148;28;20061;-55
2023/10/26 06:50:23;;;;;;;4.20;2.00;;;;;;;14.40;70.36;99591.94;5002783;28;20033;-55
2023/10/26 06:52:48;;;;;;;1.65;1.48;;;;;;;14.39;70.07;99598.31;5003966;28;20034;-55
2023/10/26 06:55:17;;;;;;;2.15;1.45;;;;;;;14.39;70.28;99598.31;5003373;28;20041;-55
2023/10/26 06:57:43;;;;;;;2.20;1.42;;;;;;;14.38;70.03;99593.94;5004405;28;20049;-55
2023/10/26 07:00:09;;;;;;;2.53;1.73;;;;;;;14.38;70.20;99593.09;5006760;28;20034;-55
2023/10/26 07:02:36;;;;;;;4.20;1.60;;;;;;;14.38;70.15;99587.72;5002897;28;20121;-55
2023/10/26 07:05:03;;;;;;;4.28;2.08;;;;;;;14.38;70.23;99598.44;5003830;28;20042;-55
2023/10/26 07:07:30;;;;;;;2.22;1.50;;;;;;;14.36;69.93;99590.56;5000852;28;20034;-55
2023/10/26 07:09:57;;;;;;;2.53;1.60;;;;;;;14.37;69.81;99594.06;5004217;28;20068;-55
2023/10/26 07:12:22;;;;;;;3.55;1.40;;;;;;;14.36;69.78;99595.91;5003951;28;20103;-55
2023/10/26 07:14:52;;;;;;;2.60;1.73;;;;;;;14.36;69.78;99585.19;5004119;28;20112;-55
2023/10/26 07:17:17;;;;;;;3.60;1.70;;;;;;;14.37;69.81;99591.41;5004324;28;20034;-55
2023/10/26 07:19:43;;;;;;;2.38;1.73;;;;;;;14.36;69.75;99584.38;5002517;28;20385;-55
2023/10/26 07:22:09;;;;;;;1.77;1.40;;;;;;;14.36;69.85;99573.66;5003213;28;20030;-55
2023/10/26 07:24:35;;;;;;;1.65;1.50;;;;;;;14.37;69.91;99573.47;5003370;28;20127;-55
2023/10/26 07:27:00;;;;;;;1.40;1.23;;;;;;;14.36;70.09;99577.16;5003380;28;20081;-55
2023/10/26 07:29:25;;;;;;;1.67;1.40;;;;;;;14.35;69.82;99575.47;5003020;28;20040;-55
2023/10/26 07:31:51;;;;;;;1.40;1.25;;;;;;;14.36;69.72;99573.66;5003794;28;20038;-55
2023/10/26 07:34:17;;;;;;;2.50;1.73;;;;;;;14.34;69.45;99565.78;5004279;28;20088;-55
2023/10/26 07:36:42;;;;;;;1.45;1.20;;;;;;;14.35;69.61;99569.28;5003405;28;20151;-55
2023/10/26 07:39:08;;;;;;;2.78;1.73;;;;;;;14.35;69.79;99569.28;5003634;28;20041;-55
2023/10/26 07:41:33;;;;;;;2.45;1.30;;;;;;;14.34;69.52;99581.00;5003543;28;20078;-55
2023/10/26 07:43:58;;;;;;;1.30;1.20;;;;;;;14.34;69.70;99576.50;5003611;28;20041;-55
2023/10/26 07:46:24;;;;;;;1.33;1.23;;;;;;;14.35;69.69;99580.00;5005377;28;20467;-55
2023/10/26 07:48:49;;;;;;;1.95;1.40;;;;;;;14.35;69.50;99577.31;5006554;28;20475;-55
2023/10/26 07:51:14;;;;;;;2.63;1.60;;;;;;;14.34;69.38;99581.84;5008071;28;20041;-55
2023/10/26 07:53:40;;;;;;;2.03;1.58;;;;;;;14.34;69.67;99586.38;5009845;28;20380;-55
2023/10/26 07:56:06;;;;;;;1.50;1.20;;;;;;;14.34;69.53;99589.88;5004250;28;20030;-55
2023/10/26 07:58:32;;;;;;;1.30;1.10;;;;;;;14.34;69.70;99597.06;5002185;28;20029;-55
2023/10/26 08:00:57;;;;;;;2.50;1.30;;;;;;;14.34;69.59;99603.25;5005339;28;20084;-55
2023/10/26 08:03:24;;;;;;;2.05;1.30;;;;;;;14.34;69.56;99607.78;5004799;28;20547;-55
2023/10/26 08:06:02;;;;;;;1.23;1.00;;;;;;;14.33;69.69;99604.25;5005207;28;20042;-55
2023/10/26 08:08:28;;;;;;;2.03;1.67;;;;;;;14.33;69.73;99612.28;5005063;28;20083;-55
2023/10/26 08:10:54;;;;;;;1.88;1.23;;;;;;;14.33;69.15;99611.44;5005741;28;20041;-55
2023/10/26 08:13:20;;;;;;;2.40;1.25;;;;;;;14.33;69.60;99608.75;5005655;28;20025;-55
2023/10/26 08:15:45;;;;;;;1.23;1.13;;;;;;;14.33;69.26;99611.44;5006962;28;20041;-55
2023/10/26 08:18:13;;;;;;;2.10;1.33;;;;;;;14.33;69.58;99614.13;5004951;28;20045;-55
2023/10/26 08:20:40;;;;;;;1.65;1.20;;;;;;;14.32;69.50;99613.28;5004671;28;20432;-55
2023/10/26 08:23:06;;;;;;;1.95;1.30;;;;;;;14.32;69.34;99610.59;5006013;28;20056;-55
2023/10/26 08:25:38;;;;;;;1.77;1.30;;;;;;;14.33;69.33;99612.28;5005558;28;20038;-56
2023/10/26 08:28:03;;;;;;;1.48;1.30;;;;;;;14.33;69.20;99622.16;5005922;28;20061;-55
2023/10/26 08:30:29;;;;;;;1.23;1.00;;;;;;;14.33;69.49;99620.31;5006040;28;20115;-55
2023/10/26 08:32:56;;;;;;;2.38;1.02;;;;;;;14.33;69.49;99619.47;5006120;28;20042;-55
2023/10/26 08:35:22;;;;;;;1.20;1.10;;;;;;;14.32;69.06;99618.63;5006352;28;20041;-55
2023/10/26 08:37:47;;;;;;;2.75;1.30;;;;;;;14.32;69.51;99625.81;5004869;28;20038;-55
2023/10/26 08:40:12;;;;;;;1.63;1.48;;;;;;;14.33;69.33;99622.16;5007756;28;20128;-55
2023/10/26 08:42:40;;;;;;;1.98;1.30;;;;;;;14.31;69.08;99619.63;5005809;28;20049;-55
2023/10/26 08:45:15;;;;;;;1.35;1.17;;;;;;;14.32;69.37;99615.97;5005572;28;20040;-55
2023/10/26 08:47:42;;;;;;;1.88;1.38;;;;;;;14.33;69.19;99622.16;5011622;28;20049;-55
2023/10/26 08:50:09;;;;;;;0.88;0.88;;;;;;;14.31;69.28;99614.25;5006174;28;20029;-55
2023/10/26 08:52:34;;;;;;;1.45;1.10;;;;;;;14.31;69.08;99616.94;5006654;28;20425;-56
2023/10/26 08:55:00;;;;;;;1.83;1.17;;;;;;;14.32;69.38;99609.75;5004816;28;20036;-56
2023/10/26 08:57:25;;;;;;;1.50;1.15;;;;;;;14.31;69.84;99608.91;5005921;28;20045;-55
2023/10/26 08:59:50;;;;;;;2.33;1.20;;;;;;;14.32;69.22;99621.31;5000703;28;20045;-56
2023/10/26 09:02:16;;;;;;;1.55;1.30;;;;;;;14.30;70.04;99623.31;5005387;28;20065;-56
2023/10/26 09:05:04;;;;;;;1.38;1.27;;;;;;;14.31;69.94;99614.25;5002325;28;20041;-57
2023/10/26 09:07:30;;;;;;;3.10;1.20;;;;;;;14.28;70.01;99615.44;5025464;28;20471;-57
2023/10/26 09:09:55;;;;;;;1.08;1.08;;;;;;;14.27;69.49;99607.53;5024595;28;20494;-57
2023/10/26 09:12:21;;;;;;;2.55;1.30;;;;;;;14.25;69.76;99596.97;5021988;28;20034;-57
2023/10/26 09:15:03;;;;;;;1.50;1.20;;;;;;;14.25;69.88;99605.00;5023772;28;20041;-57
2023/10/26 09:17:30;;;;;;;2.58;1.10;;;;;;;14.23;70.04;99611.53;5025174;28;20029;-57
2023/10/26 09:19:57;;;;;;;1.10;1.00;;;;;;;14.23;70.11;99614.19;5022570;28;20041;-57
2023/10/26 09:22:39;;;;;;;1.20;1.10;;;;;;;14.23;70.17;99604.31;5023625;28;20034;-57
2023/10/26 09:25:09;;;;;;;1.55;0.80;;;;;;;14.22;69.99;99599.97;5022908;28;20040;-57
2023/10/26 09:27:35;;;;;;;1.48;1.38;;;;;;;14.21;69.94;99598.28;5022830;28;20032;-57
2023/10/26 09:30:01;;;;;;;1.77;1.20;;;;;;;14.21;70.16;99600.13;5021266;28;20060;-57
2023/10/26 09:32:36;;;;;;;1.33;1.05;;;;;;;14.21;70.24;99598.28;5024801;28;20506;-57
2023/10/26 09:35:03;;;;;;;1.13;1.02;;;;;;;14.19;69.94;99600.28;5023566;28;20037;-57
2023/10/26 09:37:29;;;;;;;1.38;1.08;;;;;;;14.20;70.03;99603.78;5022799;28;20542;-56
2023/10/26 09:39:57;;;;;;;1.10;1.00;;;;;;;14.20;69.74;99596.63;5021035;28;20036;-57
2023/10/26 09:42:24;;;;;;;1.70;1.10;;;;;;;14.19;70.13;99591.41;5023070;28;20096;-57
2023/10/26 09:44:50;;;;;;;1.48;1.08;;;;;;;14.19;69.77;99586.88;5024945;28;20091;-57
2023/10/26 09:47:16;;;;;;;0.85;0.85;;;;;;;14.19;69.83;99588.72;5017894;28;20361;-57
2023/10/26 09:49:42;;;;;;;2.63;1.45;;;;;;;14.19;70.03;99588.72;5018934;28;20084;-57
2023/10/26 09:52:08;;;;;;;1.23;0.93;;;;;;;14.18;70.13;99593.22;5022492;28;20464;-57
2023/10/26 09:54:39;;;;;;;0.98;0.88;;;;;;;14.19;69.84;99588.72;5023662;28;20482;-57
2023/10/26 09:57:10;;;;;;;1.80;1.10;;;;;;;14.19;70.03;99588.72;5021132;28;20448;-57
2023/10/26 09:59:36;;;;;;;0.88;0.88;;;;;;;14.18;69.91;99593.22;5022037;28;20403;-57
2023/10/26 10:02:15;;;;;;;1.35;1.08;;;;;;;14.19;70.24;99589.56;5024412;28;20075;-57
2023/10/26 10:04:41;;;;;;;0.93;0.88;;;;;;;14.18;69.78;99584.34;5025216;28;20029;-57
2023/10/26 10:07:07;;;;;;;0.93;0.90;;;;;;;14.19;69.74;99583.38;5016887;28;20029;-57
2023/10/26 10:10:05;;;;;;;2.00;1.10;;;;;;;14.21;70.21;99584.06;5028129;28;20037;-57
2023/10/26 10:12:32;;;;;;;0.90;0.80;;;;;;;14.19;69.69;99580.69;5021585;28;20026;-57
2023/10/26 10:15:01;;;;;;;2.13;1.17;;;;;;;14.18;69.77;99584.34;5026009;28;20034;-57
2023/10/26 10:17:44;;;;;;;1.08;1.05;;;;;;;14.20;69.99;99596.63;5021645;28;20038;-57
2023/10/26 10:20:18;;;;;;;1.25;1.15;;;;;;;14.19;70.04;99588.72;5020242;28;20148;-57
2023/10/26 10:22:44;;;;;;;1.10;1.00;;;;;;;14.19;69.95;99578.84;5020212;28;20034;-57
2023/10/26 10:25:12;;;;;;;1.20;1.10;;;;;;;14.19;69.79;99570.00;5026670;28;20037;-57
2023/10/26 10:27:59;;;;;;;1.38;1.05;;;;;;;14.19;70.23;99559.28;5031080;28;20520;-57
2023/10/26 10:30:29;;;;;;;1.77;1.10;;;;;;;14.18;70.18;99558.41;5026818;28;20443;-57
2023/10/26 10:32:56;;;;;;;1.45;1.35;;;;;;;14.18;69.85;99553.06;5030402;28;20021;-57
2023/10/26 10:35:21;;;;;;;1.52;1.17;;;;;;;14.19;69.98;99548.56;5023560;28;20482;-57
2023/10/26 10:38:15;;;;;;;0.90;0.90;;;;;;;14.21;69.74;99538.56;5023419;28;20030;-57
2023/10/26 10:41:01;;;;;;;1.65;1.10;;;;;;;14.19;69.98;99546.72;5026648;28;20056;-58
2023/10/26 10:43:43;;;;;;;0.70;0.70;;;;;;;14.20;69.77;99544.88;5023950;28;20049;-57
2023/10/26 10:46:27;;;;;;;1.10;1.00;;;;;;;14.21;69.86;99538.56;5022527;28;20048;-57
2023/10/26 10:48:57;;;;;;;1.00;0.90;;;;;;;14.19;69.94;99541.38;5025073;28;20264;-57
2023/10/26 10:51:31;;;;;;;1.35;0.90;;;;;;;14.20;69.68;99536.84;5030187;28;20114;-57
2023/10/26 10:53:56;;;;;;;1.20;1.00;;;;;;;14.19;69.97;99540.53;5024028;28;20025;-57
2023/10/26 10:56:23;;;;;;;0.90;0.88;;;;;;;14.20;70.02;99544.88;5023019;28;20046;-57
2023/10/26 10:58:50;;;;;;;3.25;1.00;;;;;;;14.20;70.14;99536.84;5022758;28;20121;-57
2023/10/26 11:01:20;;;;;;;1.27;1.08;;;;;;;14.19;69.89;99522.63;5025728;28;20103;-58
2023/10/26 11:03:46;;;;;;;1.15;1.05;;;;;;;14.19;69.89;99519.97;5028978;28;20029;-57
2023/10/26 11:06:16;;;;;;;0.85;0.85;;;;;;;14.19;70.13;99517.28;5022524;28;20395;-58
2023/10/26 11:08:41;;;;;;;1.02;0.90;;;;;;;14.20;70.04;99518.13;5021967;28;20057;-57
2023/10/26 11:11:06;;;;;;;1.05;0.95;;;;;;;14.21;69.71;99522.50;5020954;28;20057;-57
2023/10/26 11:13:32;;;;;;;0.90;0.90;;;;;;;14.20;70.20;99524.34;5021008;28;20041;-57
2023/10/26 11:15:57;;;;;;;1.13;1.00;;;;;;;14.21;69.72;99523.31;5025202;28;20033;-58
2023/10/26 11:18:23;;;;;;;1.40;0.90;;;;;;;14.22;70.12;99518.81;5025885;28;20036;-57
2023/10/26 11:20:49;;;;;;;0.90;0.90;;;;;;;14.21;69.68;99525.16;5025468;28;20029;-57
2023/10/26 11:23:16;;;;;;;1.30;1.10;;;;;;;14.22;70.24;99529.50;5023461;28;20061;-57
2023/10/26 11:25:42;;;;;;;0.80;0.80;;;;;;;14.22;70.11;99525.00;5037508;28;20045;-57
2023/10/26 11:28:08;;;;;;;0.90;0.90;;;;;;;14.21;70.10;99517.97;5024752;28;20360;-57
2023/10/26 11:30:48;;;;;;;0.88;0.88;;;;;;;14.24;69.85;99514.13;5038694;28;20045;-58
2023/10/26 11:33:35;;;;;;;0.80;0.80;;;;;;;14.24;69.85;99516.81;5026076;28;20029;-57